sensor_id;sensor_type;location;lat;lon;timestamp;P1;durP1;ratioP1;P2;durP2;ratioP2
62894;SDS011;49204;44.916;37.998;2023-03-26T00:02:04;49.55;;;14.47;;
62894;SDS011;49204;44.916;37.998;2023-03-26T00:04:32;48.50;;;16.07;;
62894;SDS011;49204;44.916;37.998;2023-03-26T00:07:01;39.20;;;13.15;;
62894;SDS011;49204;44.916;37.998;2023-03-26T00:09:30;44.67;;;14.15;;
62894;SDS011;49204;44.916;37.998;2023-03-26T00:11:59;37.15;;;13.90;;
62894;SDS011;49204;44.916;37.998;2023-03-26T00:14:27;45.58;;;13.35;;
62894;SDS011;49204;44.916;37.998;2023-03-26T00:16:56;44.63;;;13.83;;
62894;SDS011;49204;44.916;37.998;2023-03-26T00:19:25;45.67;;;15.93;;
62894;SDS011;49204;44.916;37.998;2023-03-26T00:21:53;47.38;;;15.48;;
62894;SDS011;49204;44.916;37.998;2023-03-26T00:24:23;35.20;;;13.50;;
62894;SDS011;49204;44.916;37.998;2023-03-26T00:26:53;48.85;;;16.55;;
62894;SDS011;49204;44.916;37.998;2023-03-26T00:29:22;52.45;;;15.32;;
62894;SDS011;49204;44.916;37.998;2023-03-26T00:31:52;52.17;;;15.32;;
62894;SDS011;49204;44.916;37.998;2023-03-26T00:34:21;55.30;;;17.20;;
62894;SDS011;49204;44.916;37.998;2023-03-26T00:36:50;58.87;;;17.52;;
62894;SDS011;49204;44.916;37.998;2023-03-26T00:39:23;52.05;;;16.87;;
62894;SDS011;49204;44.916;37.998;2023-03-26T00:41:53;62.43;;;16.90;;
62894;SDS011;49204;44.916;37.998;2023-03-26T00:44:22;68.57;;;20.60;;
62894;SDS011;49204;44.916;37.998;2023-03-26T00:46:51;72.90;;;18.37;;
62894;SDS011;49204;44.916;37.998;2023-03-26T00:49:20;75.32;;;20.32;;
62894;SDS011;49204;44.916;37.998;2023-03-26T00:51:48;61.92;;;18.27;;
62894;SDS011;49204;44.916;37.998;2023-03-26T00:54:17;71.05;;;19.27;;
62894;SDS011;49204;44.916;37.998;2023-03-26T00:56:46;70.10;;;19.55;;
62894;SDS011;49204;44.916;37.998;2023-03-26T00:59:14;73.05;;;19.32;;
62894;SDS011;49204;44.916;37.998;2023-03-26T01:01:43;76.42;;;21.10;;
62894;SDS011;49204;44.916;37.998;2023-03-26T01:04:23;78.52;;;22.13;;
62894;SDS011;49204;44.916;37.998;2023-03-26T01:09:29;62.30;;;18.30;;
62894;SDS011;49204;44.916;37.998;2023-03-26T01:11:59;68.20;;;19.35;;
62894;SDS011;49204;44.916;37.998;2023-03-26T01:14:29;62.35;;;18.67;;
62894;SDS011;49204;44.916;37.998;2023-03-26T01:16:59;64.82;;;19.60;;
62894;SDS011;49204;44.916;37.998;2023-03-26T01:22:25;59.38;;;16.80;;
62894;SDS011;49204;44.916;37.998;2023-03-26T01:24:54;51.42;;;15.93;;
62894;SDS011;49204;44.916;37.998;2023-03-26T01:30:23;54.80;;;14.95;;
62894;SDS011;49204;44.916;37.998;2023-03-26T01:35:53;43.98;;;12.98;;
62894;SDS011;49204;44.916;37.998;2023-03-26T01:43:30;41.25;;;12.68;;
62894;SDS011;49204;44.916;37.998;2023-03-26T01:46:05;35.65;;;11.85;;
62894;SDS011;49204;44.916;37.998;2023-03-26T01:48:37;53.25;;;15.75;;
62894;SDS011;49204;44.916;37.998;2023-03-26T01:51:08;41.42;;;13.40;;
62894;SDS011;49204;44.916;37.998;2023-03-26T01:53:45;34.23;;;12.03;;
62894;SDS011;49204;44.916;37.998;2023-03-26T02:04:50;33.42;;;10.95;;
62894;SDS011;49204;44.916;37.998;2023-03-26T02:10:07;38.65;;;11.38;;
62894;SDS011;49204;44.916;37.998;2023-03-26T02:12:44;38.17;;;13.35;;
62894;SDS011;49204;44.916;37.998;2023-03-26T02:15:13;41.55;;;12.60;;
62894;SDS011;49204;44.916;37.998;2023-03-26T02:17:43;31.62;;;11.05;;
62894;SDS011;49204;44.916;37.998;2023-03-26T02:20:12;37.00;;;11.68;;
62894;SDS011;49204;44.916;37.998;2023-03-26T02:22:44;30.92;;;10.78;;
62894;SDS011;49204;44.916;37.998;2023-03-26T02:25:17;30.35;;;10.58;;
62894;SDS011;49204;44.916;37.998;2023-03-26T02:27:48;38.00;;;11.78;;
62894;SDS011;49204;44.916;37.998;2023-03-26T02:30:20;29.92;;;9.85;;
62894;SDS011;49204;44.916;37.998;2023-03-26T02:32:52;37.28;;;11.68;;
62894;SDS011;49204;44.916;37.998;2023-03-26T02:35:23;33.88;;;11.45;;
62894;SDS011;49204;44.916;37.998;2023-03-26T02:37:53;33.80;;;11.78;;
62894;SDS011;49204;44.916;37.998;2023-03-26T02:40:22;36.58;;;12.33;;
62894;SDS011;49204;44.916;37.998;2023-03-26T02:42:52;34.10;;;11.75;;
62894;SDS011;49204;44.916;37.998;2023-03-26T02:45:21;39.40;;;12.60;;
62894;SDS011;49204;44.916;37.998;2023-03-26T02:48:04;41.35;;;11.25;;
62894;SDS011;49204;44.916;37.998;2023-03-26T02:50:38;36.03;;;12.28;;
62894;SDS011;49204;44.916;37.998;2023-03-26T02:53:23;34.10;;;11.85;;
62894;SDS011;49204;44.916;37.998;2023-03-26T02:56:01;30.65;;;10.20;;
62894;SDS011;49204;44.916;37.998;2023-03-26T02:58:27;31.73;;;10.45;;
62894;SDS011;49204;44.916;37.998;2023-03-26T03:00:56;32.88;;;9.73;;
62894;SDS011;49204;44.916;37.998;2023-03-26T03:03:28;31.93;;;11.35;;
62894;SDS011;49204;44.916;37.998;2023-03-26T03:06:01;30.65;;;10.38;;
62894;SDS011;49204;44.916;37.998;2023-03-26T03:08:38;42.95;;;12.88;;
62894;SDS011;49204;44.916;37.998;2023-03-26T03:11:12;37.23;;;10.82;;
62894;SDS011;49204;44.916;37.998;2023-03-26T03:13:45;28.30;;;10.18;;
62894;SDS011;49204;44.916;37.998;2023-03-26T03:16:26;33.95;;;11.15;;
62894;SDS011;49204;44.916;37.998;2023-03-26T03:18:56;34.70;;;9.95;;
62894;SDS011;49204;44.916;37.998;2023-03-26T03:21:27;30.90;;;11.70;;
62894;SDS011;49204;44.916;37.998;2023-03-26T03:23:56;33.90;;;10.30;;
62894;SDS011;49204;44.916;37.998;2023-03-26T03:26:25;35.78;;;10.90;;
62894;SDS011;49204;44.916;37.998;2023-03-26T03:28:56;37.08;;;12.30;;
62894;SDS011;49204;44.916;37.998;2023-03-26T03:31:25;39.23;;;13.20;;
62894;SDS011;49204;44.916;37.998;2023-03-26T03:33:55;39.08;;;12.23;;
62894;SDS011;49204;44.916;37.998;2023-03-26T03:36:25;38.05;;;12.60;;
62894;SDS011;49204;44.916;37.998;2023-03-26T03:38:57;39.20;;;12.30;;
62894;SDS011;49204;44.916;37.998;2023-03-26T03:41:28;35.65;;;12.75;;
62894;SDS011;49204;44.916;37.998;2023-03-26T03:43:57;28.92;;;8.38;;
62894;SDS011;49204;44.916;37.998;2023-03-26T03:46:28;31.45;;;9.75;;
62894;SDS011;49204;44.916;37.998;2023-03-26T03:48:57;30.95;;;11.35;;
62894;SDS011;49204;44.916;37.998;2023-03-26T03:51:27;34.58;;;11.18;;
62894;SDS011;49204;44.916;37.998;2023-03-26T03:54:01;32.08;;;11.43;;
62894;SDS011;49204;44.916;37.998;2023-03-26T03:56:47;34.18;;;11.63;;
62894;SDS011;49204;44.916;37.998;2023-03-26T03:59:21;36.68;;;11.60;;
62894;SDS011;49204;44.916;37.998;2023-03-26T04:01:50;27.02;;;9.93;;
62894;SDS011;49204;44.916;37.998;2023-03-26T04:04:26;35.48;;;10.85;;
62894;SDS011;49204;44.916;37.998;2023-03-26T04:06:56;39.78;;;11.18;;
62894;SDS011;49204;44.916;37.998;2023-03-26T04:09:26;25.92;;;10.18;;
62894;SDS011;49204;44.916;37.998;2023-03-26T04:11:57;33.08;;;10.10;;
62894;SDS011;49204;44.916;37.998;2023-03-26T04:14:27;35.85;;;10.93;;
62894;SDS011;49204;44.916;37.998;2023-03-26T04:17:00;27.67;;;10.80;;
62894;SDS011;49204;44.916;37.998;2023-03-26T04:19:31;32.60;;;11.75;;
62894;SDS011;49204;44.916;37.998;2023-03-26T04:22:00;25.57;;;10.35;;
62894;SDS011;49204;44.916;37.998;2023-03-26T04:24:31;26.85;;;7.83;;
62894;SDS011;49204;44.916;37.998;2023-03-26T04:27:19;20.77;;;6.03;;
62894;SDS011;49204;44.916;37.998;2023-03-26T04:29:51;27.80;;;9.08;;
62894;SDS011;49204;44.916;37.998;2023-03-26T04:32:22;30.00;;;10.20;;
62894;SDS011;49204;44.916;37.998;2023-03-26T04:34:56;29.20;;;8.85;;
62894;SDS011;49204;44.916;37.998;2023-03-26T04:40:05;27.32;;;8.58;;
62894;SDS011;49204;44.916;37.998;2023-03-26T04:42:37;28.05;;;9.30;;
62894;SDS011;49204;44.916;37.998;2023-03-26T04:45:16;37.20;;;10.48;;
62894;SDS011;49204;44.916;37.998;2023-03-26T04:47:50;21.40;;;6.40;;
62894;SDS011;49204;44.916;37.998;2023-03-26T04:50:19;25.62;;;8.73;;
62894;SDS011;49204;44.916;37.998;2023-03-26T04:52:48;27.32;;;9.25;;
62894;SDS011;49204;44.916;37.998;2023-03-26T04:55:30;28.02;;;8.60;;
62894;SDS011;49204;44.916;37.998;2023-03-26T04:58:04;24.35;;;7.70;;
62894;SDS011;49204;44.916;37.998;2023-03-26T05:00:34;24.27;;;7.65;;
62894;SDS011;49204;44.916;37.998;2023-03-26T05:03:03;26.57;;;7.75;;
62894;SDS011;49204;44.916;37.998;2023-03-26T05:05:32;28.02;;;10.10;;
62894;SDS011;49204;44.916;37.998;2023-03-26T05:08:02;56.77;;;9.75;;
62894;SDS011;49204;44.916;37.998;2023-03-26T05:10:31;24.35;;;8.43;;
62894;SDS011;49204;44.916;37.998;2023-03-26T05:13:01;23.47;;;8.68;;
62894;SDS011;49204;44.916;37.998;2023-03-26T05:15:32;15.85;;;5.92;;
62894;SDS011;49204;44.916;37.998;2023-03-26T05:18:09;11.43;;;4.95;;
62894;SDS011;49204;44.916;37.998;2023-03-26T05:20:46;11.80;;;4.75;;
62894;SDS011;49204;44.916;37.998;2023-03-26T05:23:14;17.23;;;5.78;;
62894;SDS011;49204;44.916;37.998;2023-03-26T05:25:51;17.60;;;7.03;;
62894;SDS011;49204;44.916;37.998;2023-03-26T05:28:21;18.45;;;6.47;;
62894;SDS011;49204;44.916;37.998;2023-03-26T05:30:53;24.80;;;6.10;;
62894;SDS011;49204;44.916;37.998;2023-03-26T05:33:23;20.27;;;6.35;;
62894;SDS011;49204;44.916;37.998;2023-03-26T05:36:00;15.60;;;5.62;;
62894;SDS011;49204;44.916;37.998;2023-03-26T05:38:31;15.60;;;6.08;;
62894;SDS011;49204;44.916;37.998;2023-03-26T05:41:03;17.67;;;5.92;;
62894;SDS011;49204;44.916;37.998;2023-03-26T05:43:34;18.55;;;7.60;;
62894;SDS011;49204;44.916;37.998;2023-03-26T05:46:08;19.42;;;7.17;;
62894;SDS011;49204;44.916;37.998;2023-03-26T05:48:36;20.72;;;6.25;;
62894;SDS011;49204;44.916;37.998;2023-03-26T05:51:06;13.68;;;5.15;;
62894;SDS011;49204;44.916;37.998;2023-03-26T05:53:36;16.37;;;5.75;;
62894;SDS011;49204;44.916;37.998;2023-03-26T05:56:23;18.25;;;6.78;;
62894;SDS011;49204;44.916;37.998;2023-03-26T05:58:54;18.67;;;7.03;;
62894;SDS011;49204;44.916;37.998;2023-03-26T06:01:41;21.48;;;7.97;;
62894;SDS011;49204;44.916;37.998;2023-03-26T06:04:28;19.37;;;6.75;;
62894;SDS011;49204;44.916;37.998;2023-03-26T06:06:59;21.00;;;7.05;;
62894;SDS011;49204;44.916;37.998;2023-03-26T06:09:28;19.37;;;7.70;;
62894;SDS011;49204;44.916;37.998;2023-03-26T06:11:57;24.72;;;11.03;;
62894;SDS011;49204;44.916;37.998;2023-03-26T06:14:27;23.70;;;8.30;;
62894;SDS011;49204;44.916;37.998;2023-03-26T06:17:00;27.00;;;13.40;;
62894;SDS011;49204;44.916;37.998;2023-03-26T06:19:31;23.75;;;9.48;;
62894;SDS011;49204;44.916;37.998;2023-03-26T06:22:01;24.02;;;9.30;;
62894;SDS011;49204;44.916;37.998;2023-03-26T06:24:32;31.00;;;18.45;;
62894;SDS011;49204;44.916;37.998;2023-03-26T06:27:12;24.07;;;9.23;;
62894;SDS011;49204;44.916;37.998;2023-03-26T06:29:45;23.30;;;11.70;;
62894;SDS011;49204;44.916;37.998;2023-03-26T06:32:19;19.67;;;7.67;;
62894;SDS011;49204;44.916;37.998;2023-03-26T06:34:52;13.85;;;5.47;;
62894;SDS011;49204;44.916;37.998;2023-03-26T06:37:21;14.13;;;6.15;;
62894;SDS011;49204;44.916;37.998;2023-03-26T06:39:51;13.70;;;6.15;;
62894;SDS011;49204;44.916;37.998;2023-03-26T06:42:21;15.23;;;6.12;;
62894;SDS011;49204;44.916;37.998;2023-03-26T06:44:51;13.00;;;5.97;;
62894;SDS011;49204;44.916;37.998;2023-03-26T06:47:37;13.58;;;6.08;;
62894;SDS011;49204;44.916;37.998;2023-03-26T06:50:24;14.03;;;6.10;;
62894;SDS011;49204;44.916;37.998;2023-03-26T06:52:54;11.68;;;5.00;;
62894;SDS011;49204;44.916;37.998;2023-03-26T06:55:31;9.45;;;4.87;;
62894;SDS011;49204;44.916;37.998;2023-03-26T06:58:01;12.85;;;5.25;;
62894;SDS011;49204;44.916;37.998;2023-03-26T07:00:38;8.95;;;4.92;;
62894;SDS011;49204;44.916;37.998;2023-03-26T07:03:25;13.85;;;5.45;;
62894;SDS011;49204;44.916;37.998;2023-03-26T07:06:13;14.10;;;5.97;;
62894;SDS011;49204;44.916;37.998;2023-03-26T07:08:58;10.03;;;4.87;;
62894;SDS011;49204;44.916;37.998;2023-03-26T07:11:45;12.65;;;6.05;;
62894;SDS011;49204;44.916;37.998;2023-03-26T07:14:21;12.37;;;6.42;;
62894;SDS011;49204;44.916;37.998;2023-03-26T07:16:52;11.80;;;6.05;;
62894;SDS011;49204;44.916;37.998;2023-03-26T07:19:23;10.80;;;5.53;;
62894;SDS011;49204;44.916;37.998;2023-03-26T07:21:52;9.80;;;5.15;;
62894;SDS011;49204;44.916;37.998;2023-03-26T07:24:31;8.38;;;3.92;;
62894;SDS011;49204;44.916;37.998;2023-03-26T07:29:41;8.23;;;4.67;;
62894;SDS011;49204;44.916;37.998;2023-03-26T07:32:45;8.60;;;4.40;;
62894;SDS011;49204;44.916;37.998;2023-03-26T07:35:31;9.68;;;5.05;;
62894;SDS011;49204;44.916;37.998;2023-03-26T07:38:21;8.83;;;4.60;;
62894;SDS011;49204;44.916;37.998;2023-03-26T07:44:20;12.85;;;5.85;;
62894;SDS011;49204;44.916;37.998;2023-03-26T07:47:20;9.90;;;5.67;;
62894;SDS011;49204;44.916;37.998;2023-03-26T07:49:59;10.70;;;5.33;;
62894;SDS011;49204;44.916;37.998;2023-03-26T07:52:36;7.78;;;4.45;;
62894;SDS011;49204;44.916;37.998;2023-03-26T07:55:06;7.28;;;3.90;;
62894;SDS011;49204;44.916;37.998;2023-03-26T07:57:57;10.82;;;5.25;;
62894;SDS011;49204;44.916;37.998;2023-03-26T08:00:33;10.32;;;4.90;;
62894;SDS011;49204;44.916;37.998;2023-03-26T08:03:20;8.38;;;4.58;;
62894;SDS011;49204;44.916;37.998;2023-03-26T08:08:52;5.12;;;1.90;;
62894;SDS011;49204;44.916;37.998;2023-03-26T08:12:03;5.08;;;2.67;;
62894;SDS011;49204;44.916;37.998;2023-03-26T08:23:00;5.30;;;2.45;;
62894;SDS011;49204;44.916;37.998;2023-03-26T08:25:51;6.72;;;2.65;;
62894;SDS011;49204;44.916;37.998;2023-03-26T08:29:09;4.95;;;2.33;;
62894;SDS011;49204;44.916;37.998;2023-03-26T08:30:54;5.95;;;2.80;;
62894;SDS011;49204;44.916;37.998;2023-03-26T08:33:25;6.42;;;2.80;;
62894;SDS011;49204;44.916;37.998;2023-03-26T08:35:53;5.17;;;1.98;;
62894;SDS011;49204;44.916;37.998;2023-03-26T08:38:22;4.12;;;2.33;;
62894;SDS011;49204;44.916;37.998;2023-03-26T08:55:38;4.95;;;2.45;;
62894;SDS011;49204;44.916;37.998;2023-03-26T09:06:38;7.60;;;2.80;;
62894;SDS011;49204;44.916;37.998;2023-03-26T09:12:38;3.98;;;1.72;;
62894;SDS011;49204;44.916;37.998;2023-03-26T09:15:25;2.22;;;1.45;;
62894;SDS011;49204;44.916;37.998;2023-03-26T09:18:13;4.95;;;2.15;;
62894;SDS011;49204;44.916;37.998;2023-03-26T09:20:59;2.20;;;1.32;;
62894;SDS011;49204;44.916;37.998;2023-03-26T09:23:36;5.08;;;2.52;;
62894;SDS011;49204;44.916;37.998;2023-03-26T09:34:53;4.67;;;2.58;;
62894;SDS011;49204;44.916;37.998;2023-03-26T09:40:33;15.15;;;1.60;;
62894;SDS011;49204;44.916;37.998;2023-03-26T09:43:37;2.65;;;1.65;;
62894;SDS011;49204;44.916;37.998;2023-03-26T09:49:02;19.60;;;2.65;;
62894;SDS011;49204;44.916;37.998;2023-03-26T09:51:43;3.08;;;1.12;;
62894;SDS011;49204;44.916;37.998;2023-03-26T09:54:25;3.33;;;1.67;;
62894;SDS011;49204;44.916;37.998;2023-03-26T10:02:16;2.60;;;1.17;;
62894;SDS011;49204;44.916;37.998;2023-03-26T10:07:36;2.60;;;1.20;;
62894;SDS011;49204;44.916;37.998;2023-03-26T10:13:02;3.30;;;1.00;;
62894;SDS011;49204;44.916;37.998;2023-03-26T10:15:46;2.42;;;1.05;;
62894;SDS011;49204;44.916;37.998;2023-03-26T10:18:33;3.70;;;1.40;;
62894;SDS011;49204;44.916;37.998;2023-03-26T10:24:07;3.40;;;1.15;;
62894;SDS011;49204;44.916;37.998;2023-03-26T10:26:47;3.05;;;1.47;;
62894;SDS011;49204;44.916;37.998;2023-03-26T10:34:56;2.92;;;1.10;;
62894;SDS011;49204;44.916;37.998;2023-03-26T10:40:17;4.85;;;1.57;;
62894;SDS011;49204;44.916;37.998;2023-03-26T10:46:01;4.08;;;1.57;;
62894;SDS011;49204;44.916;37.998;2023-03-26T10:54:05;4.90;;;1.40;;
62894;SDS011;49204;44.916;37.998;2023-03-26T10:56:40;9.40;;;3.25;;
62894;SDS011;49204;44.916;37.998;2023-03-26T10:59:15;6.25;;;1.80;;
62894;SDS011;49204;44.916;37.998;2023-03-26T11:04:45;8.78;;;2.08;;
62894;SDS011;49204;44.916;37.998;2023-03-26T11:18:46;1.52;;;0.98;;
62894;SDS011;49204;44.916;37.998;2023-03-26T11:21:39;11.35;;;1.90;;
62894;SDS011;49204;44.916;37.998;2023-03-26T11:24:13;4.80;;;1.40;;
62894;SDS011;49204;44.916;37.998;2023-03-26T11:26:55;3.02;;;1.90;;
62894;SDS011;49204;44.916;37.998;2023-03-26T11:34:42;4.00;;;1.37;;
62894;SDS011;49204;44.916;37.998;2023-03-26T11:37:17;5.28;;;1.77;;
62894;SDS011;49204;44.916;37.998;2023-03-26T11:39:50;2.80;;;1.40;;
62894;SDS011;49204;44.916;37.998;2023-03-26T11:42:23;2.80;;;1.15;;
62894;SDS011;49204;44.916;37.998;2023-03-26T11:44:53;3.22;;;1.12;;
62894;SDS011;49204;44.916;37.998;2023-03-26T11:47:27;3.30;;;1.82;;
62894;SDS011;49204;44.916;37.998;2023-03-26T11:49:55;3.77;;;1.70;;
62894;SDS011;49204;44.916;37.998;2023-03-26T11:52:25;10.45;;;4.00;;
62894;SDS011;49204;44.916;37.998;2023-03-26T11:54:55;14.33;;;3.72;;
62894;SDS011;49204;44.916;37.998;2023-03-26T11:57:25;8.48;;;3.30;;
62894;SDS011;49204;44.916;37.998;2023-03-26T12:00:00;3.90;;;1.72;;
62894;SDS011;49204;44.916;37.998;2023-03-26T12:02:37;3.67;;;1.20;;
62894;SDS011;49204;44.916;37.998;2023-03-26T12:05:14;3.15;;;1.37;;
62894;SDS011;49204;44.916;37.998;2023-03-26T12:07:53;4.00;;;1.50;;
62894;SDS011;49204;44.916;37.998;2023-03-26T12:10:31;4.15;;;1.60;;
62894;SDS011;49204;44.916;37.998;2023-03-26T12:16:03;3.22;;;1.82;;
62894;SDS011;49204;44.916;37.998;2023-03-26T12:18:29;11.25;;;3.72;;
62894;SDS011;49204;44.916;37.998;2023-03-26T12:21:06;11.55;;;2.20;;
62894;SDS011;49204;44.916;37.998;2023-03-26T12:23:39;7.50;;;2.05;;
62894;SDS011;49204;44.916;37.998;2023-03-26T12:26:16;5.10;;;1.95;;
62894;SDS011;49204;44.916;37.998;2023-03-26T12:28:43;3.08;;;1.57;;
62894;SDS011;49204;44.916;37.998;2023-03-26T12:31:15;3.22;;;1.30;;
62894;SDS011;49204;44.916;37.998;2023-03-26T12:36:46;2.22;;;0.93;;
62894;SDS011;49204;44.916;37.998;2023-03-26T12:39:32;4.40;;;2.27;;
62894;SDS011;49204;44.916;37.998;2023-03-26T12:41:59;4.33;;;2.10;;
62894;SDS011;49204;44.916;37.998;2023-03-26T12:44:42;4.25;;;1.85;;
62894;SDS011;49204;44.916;37.998;2023-03-26T12:47:17;6.55;;;2.83;;
62894;SDS011;49204;44.916;37.998;2023-03-26T12:49:49;3.42;;;1.62;;
62894;SDS011;49204;44.916;37.998;2023-03-26T12:52:33;5.45;;;1.92;;
62894;SDS011;49204;44.916;37.998;2023-03-26T12:55:16;4.53;;;1.85;;
62894;SDS011;49204;44.916;37.998;2023-03-26T12:57:50;5.12;;;1.80;;
62894;SDS011;49204;44.916;37.998;2023-03-26T13:00:26;2.92;;;1.70;;
62894;SDS011;49204;44.916;37.998;2023-03-26T13:03:22;2.33;;;1.55;;
62894;SDS011;49204;44.916;37.998;2023-03-26T13:06:17;2.23;;;1.20;;
62894;SDS011;49204;44.916;37.998;2023-03-26T13:08:54;5.17;;;1.90;;
62894;SDS011;49204;44.916;37.998;2023-03-26T13:22:45;10.82;;;1.92;;
62894;SDS011;49204;44.916;37.998;2023-03-26T13:27:45;3.92;;;2.00;;
62894;SDS011;49204;44.916;37.998;2023-03-26T13:36:13;4.00;;;2.00;;
62894;SDS011;49204;44.916;37.998;2023-03-26T13:38:54;4.65;;;1.67;;
62894;SDS011;49204;44.916;37.998;2023-03-26T13:41:47;3.45;;;1.87;;
62894;SDS011;49204;44.916;37.998;2023-03-26T13:44:28;9.75;;;2.02;;
62894;SDS011;49204;44.916;37.998;2023-03-26T13:46:59;5.55;;;1.95;;
62894;SDS011;49204;44.916;37.998;2023-03-26T13:52:26;2.85;;;1.62;;
62894;SDS011;49204;44.916;37.998;2023-03-26T13:55:06;2.65;;;0.95;;
62894;SDS011;49204;44.916;37.998;2023-03-26T13:57:27;5.03;;;1.55;;
62894;SDS011;49204;44.916;37.998;2023-03-26T13:59:59;4.55;;;1.82;;
62894;SDS011;49204;44.916;37.998;2023-03-26T14:02:36;5.92;;;1.60;;
62894;SDS011;49204;44.916;37.998;2023-03-26T14:05:20;4.03;;;1.40;;
62894;SDS011;49204;44.916;37.998;2023-03-26T14:10:56;2.25;;;1.12;;
62894;SDS011;49204;44.916;37.998;2023-03-26T14:13:39;1.82;;;0.82;;
62894;SDS011;49204;44.916;37.998;2023-03-26T14:16:25;2.37;;;1.17;;
62894;SDS011;49204;44.916;37.998;2023-03-26T14:21:54;1.57;;;0.80;;
62894;SDS011;49204;44.916;37.998;2023-03-26T14:35:40;3.80;;;1.85;;
62894;SDS011;49204;44.916;37.998;2023-03-26T14:47:09;4.47;;;1.40;;
62894;SDS011;49204;44.916;37.998;2023-03-26T14:52:46;2.98;;;2.17;;
62894;SDS011;49204;44.916;37.998;2023-03-26T15:01:02;1.72;;;1.15;;
62894;SDS011;49204;44.916;37.998;2023-03-26T15:07:24;3.75;;;1.40;;
62894;SDS011;49204;44.916;37.998;2023-03-26T15:12:20;2.83;;;1.15;;
62894;SDS011;49204;44.916;37.998;2023-03-26T15:21:01;1.72;;;1.07;;
62894;SDS011;49204;44.916;37.998;2023-03-26T15:38:19;2.70;;;1.17;;
62894;SDS011;49204;44.916;37.998;2023-03-26T15:46:50;1.87;;;1.20;;
62894;SDS011;49204;44.916;37.998;2023-03-26T15:49:18;2.20;;;1.10;;
62894;SDS011;49204;44.916;37.998;2023-03-26T15:54:56;3.52;;;1.10;;
62894;SDS011;49204;44.916;37.998;2023-03-26T15:57:38;2.45;;;1.12;;
62894;SDS011;49204;44.916;37.998;2023-03-26T16:11:47;4.37;;;1.47;;
62894;SDS011;49204;44.916;37.998;2023-03-26T16:17:12;5.35;;;1.90;;
62894;SDS011;49204;44.916;37.998;2023-03-26T16:19:47;2.80;;;1.07;;
62894;SDS011;49204;44.916;37.998;2023-03-26T16:22:36;4.47;;;1.82;;
62894;SDS011;49204;44.916;37.998;2023-03-26T16:30:42;2.40;;;1.15;;
62894;SDS011;49204;44.916;37.998;2023-03-26T16:33:15;3.27;;;1.42;;
62894;SDS011;49204;44.916;37.998;2023-03-26T16:38:44;2.12;;;1.20;;
62894;SDS011;49204;44.916;37.998;2023-03-26T16:41:01;2.30;;;1.45;;
62894;SDS011;49204;44.916;37.998;2023-03-26T16:43:39;5.20;;;1.45;;
62894;SDS011;49204;44.916;37.998;2023-03-26T17:00:03;3.40;;;0.90;;
62894;SDS011;49204;44.916;37.998;2023-03-26T17:02:46;1.67;;;1.20;;
62894;SDS011;49204;44.916;37.998;2023-03-26T17:05:23;2.80;;;1.40;;
62894;SDS011;49204;44.916;37.998;2023-03-26T17:07:57;2.30;;;1.00;;
62894;SDS011;49204;44.916;37.998;2023-03-26T17:10:34;3.42;;;0.95;;
62894;SDS011;49204;44.916;37.998;2023-03-26T17:13:10;1.95;;;0.82;;
62894;SDS011;49204;44.916;37.998;2023-03-26T17:21:19;4.20;;;1.00;;
62894;SDS011;49204;44.916;37.998;2023-03-26T17:32:19;2.40;;;1.47;;
62894;SDS011;49204;44.916;37.998;2023-03-26T17:34:58;2.98;;;1.30;;
62894;SDS011;49204;44.916;37.998;2023-03-26T17:37:39;3.17;;;1.30;;
62894;SDS011;49204;44.916;37.998;2023-03-26T17:40:28;4.50;;;1.35;;
62894;SDS011;49204;44.916;37.998;2023-03-26T17:43:00;4.15;;;1.50;;
62894;SDS011;49204;44.916;37.998;2023-03-26T17:45:33;3.17;;;1.50;;
62894;SDS011;49204;44.916;37.998;2023-03-26T17:48:07;2.83;;;1.72;;
62894;SDS011;49204;44.916;37.998;2023-03-26T17:55:59;4.75;;;2.40;;
62894;SDS011;49204;44.916;37.998;2023-03-26T17:58:39;2.72;;;1.40;;
62894;SDS011;49204;44.916;37.998;2023-03-26T18:01:15;3.55;;;1.82;;
62894;SDS011;49204;44.916;37.998;2023-03-26T18:03:53;3.70;;;1.22;;
62894;SDS011;49204;44.916;37.998;2023-03-26T18:09:08;4.55;;;1.77;;
62894;SDS011;49204;44.916;37.998;2023-03-26T18:11:55;4.65;;;2.30;;
62894;SDS011;49204;44.916;37.998;2023-03-26T18:17:09;4.50;;;1.80;;
62894;SDS011;49204;44.916;37.998;2023-03-26T18:19:46;4.65;;;1.98;;
62894;SDS011;49204;44.916;37.998;2023-03-26T18:22:25;4.37;;;1.50;;
62894;SDS011;49204;44.916;37.998;2023-03-26T18:27:25;3.85;;;1.92;;
62894;SDS011;49204;44.916;37.998;2023-03-26T18:30:16;3.20;;;1.77;;
62894;SDS011;49204;44.916;37.998;2023-03-26T18:32:50;2.83;;;1.57;;
62894;SDS011;49204;44.916;37.998;2023-03-26T18:35:23;2.58;;;1.40;;
62894;SDS011;49204;44.916;37.998;2023-03-26T18:37:55;2.37;;;1.32;;
62894;SDS011;49204;44.916;37.998;2023-03-26T18:40:28;4.00;;;1.92;;
62894;SDS011;49204;44.916;37.998;2023-03-26T18:43:00;5.12;;;1.85;;
62894;SDS011;49204;44.916;37.998;2023-03-26T18:45:36;2.85;;;1.30;;
62894;SDS011;49204;44.916;37.998;2023-03-26T18:48:04;4.28;;;1.98;;
62894;SDS011;49204;44.916;37.998;2023-03-26T18:50:36;4.15;;;1.82;;
62894;SDS011;49204;44.916;37.998;2023-03-26T18:53:13;3.85;;;1.62;;
62894;SDS011;49204;44.916;37.998;2023-03-26T18:55:43;4.45;;;1.90;;
62894;SDS011;49204;44.916;37.998;2023-03-26T18:58:23;4.60;;;2.40;;
62894;SDS011;49204;44.916;37.998;2023-03-26T19:01:03;4.65;;;1.95;;
62894;SDS011;49204;44.916;37.998;2023-03-26T19:03:37;4.17;;;2.05;;
62894;SDS011;49204;44.916;37.998;2023-03-26T19:06:11;3.92;;;1.47;;
62894;SDS011;49204;44.916;37.998;2023-03-26T19:08:42;5.50;;;2.58;;
62894;SDS011;49204;44.916;37.998;2023-03-26T19:11:14;5.03;;;2.42;;
62894;SDS011;49204;44.916;37.998;2023-03-26T19:13:49;4.03;;;1.87;;
62894;SDS011;49204;44.916;37.998;2023-03-26T19:16:20;4.97;;;2.25;;
62894;SDS011;49204;44.916;37.998;2023-03-26T19:18:53;4.90;;;1.67;;
62894;SDS011;49204;44.916;37.998;2023-03-26T19:21:25;5.05;;;2.12;;
62894;SDS011;49204;44.916;37.998;2023-03-26T19:23:54;3.60;;;1.95;;
62894;SDS011;49204;44.916;37.998;2023-03-26T19:26:23;4.95;;;2.17;;
62894;SDS011;49204;44.916;37.998;2023-03-26T19:28:52;4.45;;;1.92;;
62894;SDS011;49204;44.916;37.998;2023-03-26T19:31:25;3.83;;;1.70;;
62894;SDS011;49204;44.916;37.998;2023-03-26T19:36:52;5.72;;;1.80;;
62894;SDS011;49204;44.916;37.998;2023-03-26T19:39:20;4.60;;;1.95;;
62894;SDS011;49204;44.916;37.998;2023-03-26T19:41:49;4.50;;;1.87;;
62894;SDS011;49204;44.916;37.998;2023-03-26T19:44:20;6.85;;;1.90;;
62894;SDS011;49204;44.916;37.998;2023-03-26T19:47:04;3.72;;;2.02;;
62894;SDS011;49204;44.916;37.998;2023-03-26T19:49:50;5.87;;;2.15;;
62894;SDS011;49204;44.916;37.998;2023-03-26T19:52:25;4.80;;;1.85;;
62894;SDS011;49204;44.916;37.998;2023-03-26T19:57:45;5.42;;;1.57;;
62894;SDS011;49204;44.916;37.998;2023-03-26T20:00:14;4.25;;;1.87;;
62894;SDS011;49204;44.916;37.998;2023-03-26T20:02:44;2.95;;;1.25;;
62894;SDS011;49204;44.916;37.998;2023-03-26T20:05:18;3.72;;;2.15;;
62894;SDS011;49204;44.916;37.998;2023-03-26T20:07:53;2.50;;;1.57;;
62894;SDS011;49204;44.916;37.998;2023-03-26T20:10:26;3.25;;;1.15;;
62894;SDS011;49204;44.916;37.998;2023-03-26T20:12:55;1.82;;;1.02;;
62894;SDS011;49204;44.916;37.998;2023-03-26T20:15:24;3.35;;;1.72;;
62894;SDS011;49204;44.916;37.998;2023-03-26T20:17:55;2.58;;;1.75;;